Time;durP1;ratioP1;P1;durP2;ratioP2;P2;SDS_P1;SDS_P2;PMS_P1;PMS_P2;Temp;Humidity;BMP_temperature;BMP_pressure;BME280_temperature;BME280_humidity;BME280_pressure;Samples;Min_cycle;Max_cycle;Signal;HPM_P1;HPM_P2
2022/05/08 00:02:24;;;;;;;12.65;1.80;;;;;;;;;;5052623;28;20051;-90
2022/05/08 00:04:53;;;;;;;13.05;2.80;;;;;;;;;;5062132;28;20052;-90
2022/05/08 00:07:21;;;;;;;11.30;2.45;;;;;;;;;;5064771;28;20048;-90
2022/05/08 00:09:50;;;;;;;12.32;2.13;;;;;;;;;;5065008;28;20580;-89
2022/05/08 00:12:18;;;;;;;8.77;1.77;;;;;;;;;;5063880;28;20044;-91
2022/05/08 00:14:46;;;;;;;8.88;1.98;;;;;;;;;;5063142;28;20115;-89
2022/05/08 00:17:14;;;;;;;9.85;1.92;;;;;;;;;;5064725;28;20053;-89
2022/05/08 00:19:44;;;;;;;9.75;1.80;;;;;;;;;;5063759;28;20104;-89
2022/05/08 00:22:12;;;;;;;5.53;1.75;;;;;;;;;;5064283;28;20405;-89
2022/05/08 00:25:02;;;;;;;12.10;2.13;;;;;;;;;;5067065;28;20076;-88
2022/05/08 00:27:30;;;;;;;8.05;1.90;;;;;;;;;;5067969;28;20053;-91
2022/05/08 00:29:58;;;;;;;14.50;2.10;;;;;;;;;;5066695;28;20047;-90
2022/05/08 00:32:26;;;;;;;8.15;1.65;;;;;;;;;;5067208;28;20052;-90
2022/05/08 00:34:57;;;;;;;7.38;1.90;;;;;;;;;;5057989;28;20074;-91
2022/05/08 00:37:24;;;;;;;9.27;1.67;;;;;;;;;;5071958;28;20832;-91
2022/05/08 00:39:52;;;;;;;7.13;1.80;;;;;;;;;;5065711;28;20040;-91
2022/05/08 00:42:20;;;;;;;9.13;2.67;;;;;;;;;;5071915;28;20056;-90
2022/05/08 00:44:48;;;;;;;7.13;1.67;;;;;;;;;;5067991;28;20049;-90
2022/05/08 00:47:16;;;;;;;7.18;2.03;;;;;;;;;;5067231;28;20517;-90
2022/05/08 00:49:44;;;;;;;5.85;1.60;;;;;;;;;;5066134;28;20057;-91
2022/05/08 00:52:15;;;;;;;10.93;2.08;;;;;;;;;;5052041;28;20052;-91
2022/05/08 00:54:43;;;;;;;12.70;2.17;;;;;;;;;;5059500;28;20044;-92
2022/05/08 00:57:10;;;;;;;13.48;2.08;;;;;;;;;;5071689;28;20494;-91
2022/05/08 00:59:38;;;;;;;11.60;2.40;;;;;;;;;;5053015;28;20045;-92
2022/05/08 01:02:06;;;;;;;11.05;2.17;;;;;;;;;;5071930;28;20044;-91
2022/05/08 01:04:34;;;;;;;11.23;2.20;;;;;;;;;;5081791;28;20070;-91
2022/05/08 01:07:02;;;;;;;10.65;2.08;;;;;;;;;;5075500;28;20055;-91
2022/05/08 01:09:33;;;;;;;5.68;1.80;;;;;;;;;;5050693;28;20051;-91
2022/05/08 01:12:07;;;;;;;9.77;2.45;;;;;;;;;;5071145;28;20520;-91
2022/05/08 01:14:34;;;;;;;10.75;2.35;;;;;;;;;;5071378;28;20133;-92
2022/05/08 01:17:02;;;;;;;8.00;2.00;;;;;;;;;;5079141;28;20493;-91
2022/05/08 01:19:30;;;;;;;9.35;2.42;;;;;;;;;;5073408;28;20123;-92
2022/05/08 01:21:58;;;;;;;8.70;2.00;;;;;;;;;;5064974;28;20056;-92
2022/05/08 01:24:26;;;;;;;7.90;2.28;;;;;;;;;;5072940;28;20082;-91
2022/05/08 01:26:54;;;;;;;7.88;2.33;;;;;;;;;;5077464;28;21058;-91
2022/05/08 01:29:22;;;;;;;7.82;2.00;;;;;;;;;;5065181;28;20102;-91
2022/05/08 01:31:50;;;;;;;8.45;1.85;;;;;;;;;;5071612;28;20098;-91
2022/05/08 01:34:18;;;;;;;11.55;2.00;;;;;;;;;;5063306;28;20045;-92
2022/05/08 01:36:46;;;;;;;8.05;1.77;;;;;;;;;;5067555;28;20052;-92
2022/05/08 01:39:14;;;;;;;8.18;2.65;;;;;;;;;;5069986;28;20468;-92
2022/05/08 01:41:42;;;;;;;5.10;1.48;;;;;;;;;;5052847;28;20094;-92
2022/05/08 01:44:10;;;;;;;9.55;1.95;;;;;;;;;;5070881;28;20681;-91
2022/05/08 01:46:38;;;;;;;8.15;1.83;;;;;;;;;;5066251;28;20041;-91
2022/05/08 01:49:06;;;;;;;5.18;1.70;;;;;;;;;;5075274;28;20055;-91
2022/05/08 01:51:34;;;;;;;12.07;2.00;;;;;;;;;;5071531;28;20888;-92
2022/05/08 01:54:05;;;;;;;7.28;2.22;;;;;;;;;;5065649;28;20048;-92
2022/05/08 01:56:34;;;;;;;7.20;2.03;;;;;;;;;;5069903;28;20091;-92
2022/05/08 01:59:02;;;;;;;8.05;2.08;;;;;;;;;;5074620;28;20122;-92
2022/05/08 02:01:30;;;;;;;13.27;2.42;;;;;;;;;;5072674;28;20094;-91
2022/05/08 02:04:00;;;;;;;7.10;1.85;;;;;;;;;;5062231;28;20984;-91
2022/05/08 02:06:28;;;;;;;17.13;3.22;;;;;;;;;;5083041;28;20093;-91
2022/05/08 02:08:56;;;;;;;13.70;1.98;;;;;;;;;;5059412;28;20048;-89
2022/05/08 02:11:24;;;;;;;10.75;2.13;;;;;;;;;;5069960;28;20041;-92
2022/05/08 02:13:52;;;;;;;8.65;2.00;;;;;;;;;;5035986;28;20165;-92
2022/05/08 02:16:20;;;;;;;8.57;1.98;;;;;;;;;;5067402;28;20051;-90
2022/05/08 02:18:48;;;;;;;8.20;1.70;;;;;;;;;;5067358;28;20040;-90
2022/05/08 02:21:17;;;;;;;10.63;2.83;;;;;;;;;;5072407;28;20560;-91
2022/05/08 02:23:44;;;;;;;8.02;2.22;;;;;;;;;;5067780;28;20044;-92
2022/05/08 02:26:12;;;;;;;4.70;1.52;;;;;;;;;;5072524;28;20053;-91
2022/05/08 02:28:40;;;;;;;8.68;2.63;;;;;;;;;;5068266;28;20513;-90
2022/05/08 02:31:08;;;;;;;20.75;2.13;;;;;;;;;;5070973;28;20041;-90
2022/05/08 02:33:36;;;;;;;9.30;2.10;;;;;;;;;;5067974;28;20128;-90
2022/05/08 02:36:04;;;;;;;5.22;2.10;;;;;;;;;;5054361;28;20049;-90
2022/05/08 02:38:33;;;;;;;14.07;1.90;;;;;;;;;;5067003;28;20043;-90
2022/05/08 02:41:02;;;;;;;7.80;1.95;;;;;;;;;;5053030;28;20124;-90
2022/05/08 02:43:30;;;;;;;8.63;2.05;;;;;;;;;;5071655;28;20048;-89
2022/05/08 02:46:00;;;;;;;6.63;1.90;;;;;;;;;;5065860;28;20064;-89
2022/05/08 02:48:28;;;;;;;10.50;2.17;;;;;;;;;;5064287;28;20045;-89
2022/05/08 02:50:58;;;;;;;9.65;1.90;;;;;;;;;;5064401;28;20461;-90
2022/05/08 02:53:26;;;;;;;5.55;1.75;;;;;;;;;;5066551;28;20049;-89
2022/05/08 02:58:40;;;;;;;6.75;2.10;;;;;;;;;;5069499;28;20044;-89
2022/05/08 03:01:08;;;;;;;13.60;2.70;;;;;;;;;;5075591;28;20040;-91
2022/05/08 03:03:36;;;;;;;8.90;2.95;;;;;;;;;;5068914;28;20045;-91
2022/05/08 03:06:05;;;;;;;9.05;2.10;;;;;;;;;;5075961;28;20049;-91
2022/05/08 03:08:34;;;;;;;12.75;2.00;;;;;;;;;;5070147;28;20044;-91
2022/05/08 03:13:48;;;;;;;5.53;1.63;;;;;;;;;;5072401;28;20044;-90
2022/05/08 03:16:17;;;;;;;6.13;2.00;;;;;;;;;;5071614;28;20039;-90
2022/05/08 03:18:45;;;;;;;10.73;2.13;;;;;;;;;;5069467;28;20138;-91
2022/05/08 03:21:13;;;;;;;7.50;1.90;;;;;;;;;;5079433;28;20045;-90
2022/05/08 03:23:41;;;;;;;10.75;2.03;;;;;;;;;;5066162;28;20549;-89
2022/05/08 03:26:08;;;;;;;8.27;2.65;;;;;;;;;;5066350;28;20053;-90
2022/05/08 03:28:39;;;;;;;7.78;3.13;;;;;;;;;;5069929;28;20060;-91
2022/05/08 03:31:09;;;;;;;9.77;2.00;;;;;;;;;;5066288;28;20048;-90
2022/05/08 03:33:37;;;;;;;10.70;2.17;;;;;;;;;;5065806;28;20465;-90
2022/05/08 03:36:06;;;;;;;6.72;2.15;;;;;;;;;;5064299;28;20133;-90
2022/05/08 03:38:35;;;;;;;7.70;2.10;;;;;;;;;;5067824;28;20139;-89
2022/05/08 03:41:02;;;;;;;5.63;2.00;;;;;;;;;;5068949;28;20145;-90
2022/05/08 03:43:30;;;;;;;7.30;2.17;;;;;;;;;;5069148;28;20509;-90
2022/05/08 03:45:58;;;;;;;8.40;2.33;;;;;;;;;;5063130;28;20074;-92
2022/05/08 03:48:26;;;;;;;8.68;2.20;;;;;;;;;;5069599;28;20041;-90
2022/05/08 03:50:54;;;;;;;8.82;1.90;;;;;;;;;;5066286;28;20045;-90
2022/05/08 03:53:22;;;;;;;8.75;2.30;;;;;;;;;;5059235;28;20051;-92
2022/05/08 03:55:50;;;;;;;5.93;1.60;;;;;;;;;;5075381;28;20071;-91
2022/05/08 03:58:18;;;;;;;9.25;2.40;;;;;;;;;;5061910;28;20049;-92
2022/05/08 04:00:46;;;;;;;9.32;2.00;;;;;;;;;;5067641;28;20573;-90
2022/05/08 04:03:14;;;;;;;9.45;2.42;;;;;;;;;;5075214;28;20102;-91
2022/05/08 04:05:42;;;;;;;10.32;2.42;;;;;;;;;;5065205;28;20052;-91
2022/05/08 04:08:10;;;;;;;9.68;2.35;;;;;;;;;;5065648;28;20467;-90
2022/05/08 04:10:38;;;;;;;11.98;2.90;;;;;;;;;;5074219;28;20055;-92
2022/05/08 04:13:06;;;;;;;9.35;2.35;;;;;;;;;;5055227;28;20049;-91
2022/05/08 04:18:20;;;;;;;10.60;2.83;;;;;;;;;;5072623;28;20137;-92
2022/05/08 04:20:48;;;;;;;8.43;2.60;;;;;;;;;;5072130;28;20048;-90
2022/05/08 04:26:02;;;;;;;16.30;2.60;;;;;;;;;;5074871;28;20055;-90
2022/05/08 04:28:30;;;;;;;8.73;2.53;;;;;;;;;;5076918;28;20472;-91
2022/05/08 04:30:58;;;;;;;8.75;2.58;;;;;;;;;;5071806;28;20513;-90
2022/05/08 04:33:26;;;;;;;6.43;2.92;;;;;;;;;;5066356;28;20095;-91
2022/05/08 04:35:54;;;;;;;11.57;3.22;;;;;;;;;;5068749;28;20055;-91
2022/05/08 04:38:22;;;;;;;7.07;2.38;;;;;;;;;;5074845;28;20052;-90
2022/05/08 04:40:50;;;;;;;10.55;2.60;;;;;;;;;;5067610;28;20510;-91
2022/05/08 04:43:18;;;;;;;17.05;3.25;;;;;;;;;;5068260;28;20063;-91
2022/05/08 04:45:46;;;;;;;8.52;2.55;;;;;;;;;;5067125;28;20055;-90
2022/05/08 04:48:15;;;;;;;18.48;2.97;;;;;;;;;;5069315;28;20498;-90
2022/05/08 04:50:44;;;;;;;10.13;2.70;;;;;;;;;;5070296;28;20048;-91
2022/05/08 04:53:12;;;;;;;11.73;3.28;;;;;;;;;;5067973;28;20489;-90
2022/05/08 04:55:40;;;;;;;10.48;3.25;;;;;;;;;;5070517;28;20153;-92
2022/05/08 04:58:08;;;;;;;9.07;3.15;;;;;;;;;;5058752;28;20053;-92
2022/05/08 05:00:36;;;;;;;11.13;2.78;;;;;;;;;;5069248;28;20036;-91
2022/05/08 05:03:04;;;;;;;12.43;2.88;;;;;;;;;;5073024;28;20151;-91
2022/05/08 05:05:33;;;;;;;9.50;2.45;;;;;;;;;;5079736;28;20044;-90
2022/05/08 05:08:03;;;;;;;13.55;3.10;;;;;;;;;;5070839;28;20067;-91
2022/05/08 05:10:30;;;;;;;12.13;2.97;;;;;;;;;;5047219;28;20170;-91
2022/05/08 05:12:58;;;;;;;10.05;2.80;;;;;;;;;;5063685;28;20140;-91
2022/05/08 05:15:27;;;;;;;16.63;2.85;;;;;;;;;;5067154;28;20041;-91
2022/05/08 05:17:58;;;;;;;11.65;2.67;;;;;;;;;;5055872;28;20486;-91
2022/05/08 05:20:26;;;;;;;10.82;2.88;;;;;;;;;;5052553;28;20177;-90
2022/05/08 05:22:54;;;;;;;11.38;2.85;;;;;;;;;;5058601;28;20455;-90
2022/05/08 05:25:22;;;;;;;12.05;2.90;;;;;;;;;;5057405;28;20040;-91
2022/05/08 05:27:50;;;;;;;10.10;2.80;;;;;;;;;;5050026;28;20055;-91
2022/05/08 05:30:18;;;;;;;15.10;3.22;;;;;;;;;;5067716;28;20558;-91
2022/05/08 05:32:46;;;;;;;8.05;2.15;;;;;;;;;;5072313;28;20036;-90
2022/05/08 05:35:14;;;;;;;9.80;2.55;;;;;;;;;;5067030;28;20041;-91
2022/05/08 05:37:42;;;;;;;10.60;2.50;;;;;;;;;;5072827;28;20139;-91
2022/05/08 05:40:11;;;;;;;11.13;3.00;;;;;;;;;;5049412;28;20417;-92
2022/05/08 05:42:40;;;;;;;13.57;2.33;;;;;;;;;;5074215;28;20048;-91
2022/05/08 05:45:08;;;;;;;11.73;2.20;;;;;;;;;;5072840;28;20055;-91
2022/05/08 05:47:52;;;;;;;10.57;2.78;;;;;;;;;;5064468;28;20102;-90
2022/05/08 05:50:22;;;;;;;7.70;2.20;;;;;;;;;;5081578;28;20421;-91
2022/05/08 05:52:51;;;;;;;11.70;2.47;;;;;;;;;;5081608;28;20098;-92
2022/05/08 05:55:19;;;;;;;11.15;2.53;;;;;;;;;;5079779;28;20052;-91
2022/05/08 05:57:46;;;;;;;9.52;2.20;;;;;;;;;;5061801;28;20060;-91
2022/05/08 06:00:16;;;;;;;12.95;2.33;;;;;;;;;;5064025;28;20048;-91
2022/05/08 06:02:45;;;;;;;9.02;1.85;;;;;;;;;;5045174;28;20090;-91
2022/05/08 06:05:13;;;;;;;12.43;2.05;;;;;;;;;;5068294;28;20068;-93
2022/05/08 06:07:42;;;;;;;7.70;2.00;;;;;;;;;;5066370;28;20092;-90
2022/05/08 06:10:12;;;;;;;10.27;2.08;;;;;;;;;;5065239;28;20471;-91
2022/05/08 06:12:40;;;;;;;9.65;2.47;;;;;;;;;;5065265;28;20147;-89
2022/05/08 06:15:09;;;;;;;19.05;2.33;;;;;;;;;;5073039;28;20462;-91
2022/05/08 06:17:36;;;;;;;7.53;1.77;;;;;;;;;;5064317;28;20067;-91
2022/05/08 06:20:04;;;;;;;16.17;2.45;;;;;;;;;;5062619;28;20099;-90
2022/05/08 06:22:36;;;;;;;12.85;2.22;;;;;;;;;;5070091;28;20507;-91
2022/05/08 06:25:04;;;;;;;13.13;2.20;;;;;;;;;;5067797;28;20056;-90
2022/05/08 06:27:32;;;;;;;12.82;2.40;;;;;;;;;;5068627;28;20045;-91
2022/05/08 06:30:00;;;;;;;7.50;1.70;;;;;;;;;;5072825;28;20136;-91
2022/05/08 06:32:28;;;;;;;8.60;1.80;;;;;;;;;;5073703;28;20394;-91
2022/05/08 06:34:56;;;;;;;11.20;2.30;;;;;;;;;;5070633;28;20139;-91
2022/05/08 06:37:24;;;;;;;10.93;1.80;;;;;;;;;;5074015;28;20055;-92
2022/05/08 06:39:52;;;;;;;12.90;2.33;;;;;;;;;;5077173;28;20094;-87
2022/05/08 06:42:20;;;;;;;9.68;2.10;;;;;;;;;;5061411;28;20049;-86
2022/05/08 06:44:52;;;;;;;10.35;2.10;;;;;;;;;;5057786;28;20061;-85
2022/05/08 06:47:21;;;;;;;9.63;2.35;;;;;;;;;;5058101;28;20059;-83
2022/05/08 06:49:50;;;;;;;9.55;1.85;;;;;;;;;;5058122;28;20135;-86
2022/05/08 06:52:18;;;;;;;11.90;1.83;;;;;;;;;;5059274;28;20064;-87
2022/05/08 06:54:47;;;;;;;14.13;2.10;;;;;;;;;;5060311;28;20154;-85
2022/05/08 06:57:14;;;;;;;13.23;1.63;;;;;;;;;;5058237;28;20045;-85
2022/05/08 07:02:30;;;;;;;15.13;1.92;;;;;;;;;;5057214;28;20048;-86
2022/05/08 07:04:58;;;;;;;9.70;1.58;;;;;;;;;;5057609;28;20055;-85
2022/05/08 07:07:26;;;;;;;11.05;1.88;;;;;;;;;;5058050;28;20051;-85
2022/05/08 07:09:55;;;;;;;17.40;2.45;;;;;;;;;;5059457;28;20049;-85
2022/05/08 07:12:24;;;;;;;8.00;2.00;;;;;;;;;;5056168;28;20848;-85
2022/05/08 07:14:54;;;;;;;14.45;1.98;;;;;;;;;;5056865;28;20056;-85
2022/05/08 07:17:23;;;;;;;12.18;2.00;;;;;;;;;;5058583;28;20051;-85
2022/05/08 07:19:50;;;;;;;10.68;2.28;;;;;;;;;;5056263;28;20049;-85
2022/05/08 07:22:18;;;;;;;7.80;1.90;;;;;;;;;;5056837;28;20079;-85
2022/05/08 07:24:46;;;;;;;10.88;2.15;;;;;;;;;;5056250;28;20049;-85
2022/05/08 07:27:14;;;;;;;16.85;2.20;;;;;;;;;;5057215;28;20048;-85
2022/05/08 07:29:43;;;;;;;11.38;1.92;;;;;;;;;;5057879;28;20114;-85
2022/05/08 07:32:10;;;;;;;13.10;1.88;;;;;;;;;;5056811;28;20460;-86
2022/05/08 07:37:28;;;;;;;11.50;2.15;;;;;;;;;;5059158;28;20139;-85
2022/05/08 07:39:56;;;;;;;10.20;1.88;;;;;;;;;;5057949;28;20131;-85
2022/05/08 07:42:24;;;;;;;12.88;2.10;;;;;;;;;;5057730;28;20036;-85
2022/05/08 07:44:52;;;;;;;13.25;2.22;;;;;;;;;;5058819;28;20063;-85
2022/05/08 07:47:22;;;;;;;8.40;2.08;;;;;;;;;;5058507;28;20125;-85
2022/05/08 07:49:50;;;;;;;9.07;2.20;;;;;;;;;;5058453;28;20056;-85
2022/05/08 07:52:18;;;;;;;12.90;2.15;;;;;;;;;;5057767;28;20057;-85
2022/05/08 07:54:46;;;;;;;8.10;1.90;;;;;;;;;;5057566;28;20050;-85
2022/05/08 07:57:14;;;;;;;8.43;1.95;;;;;;;;;;5057860;28;20073;-85
2022/05/08 07:59:42;;;;;;;8.88;1.85;;;;;;;;;;5053471;28;20061;-87
2022/05/08 08:02:10;;;;;;;12.40;1.83;;;;;;;;;;5057909;28;20110;-86
2022/05/08 08:04:38;;;;;;;8.38;2.38;;;;;;;;;;5058976;28;20045;-85
2022/05/08 08:07:06;;;;;;;8.63;1.63;;;;;;;;;;5057337;28;20135;-85
2022/05/08 08:09:39;;;;;;;9.52;1.85;;;;;;;;;;5056857;28;20413;-85
2022/05/08 08:12:13;;;;;;;10.80;2.22;;;;;;;;;;5055933;28;20867;-85
2022/05/08 08:14:43;;;;;;;9.15;1.90;;;;;;;;;;5054732;28;20052;-85
2022/05/08 08:17:17;;;;;;;8.45;2.25;;;;;;;;;;5056181;28;20048;-86
2022/05/08 08:19:50;;;;;;;10.32;2.28;;;;;;;;;;5059354;28;20143;-86
2022/05/08 08:22:18;;;;;;;8.23;1.80;;;;;;;;;;5057446;28;20048;-85
2022/05/08 08:24:46;;;;;;;18.02;2.75;;;;;;;;;;5057658;28;20076;-85
2022/05/08 08:27:16;;;;;;;14.35;2.75;;;;;;;;;;5055196;28;20195;-87
2022/05/08 08:29:44;;;;;;;13.45;2.15;;;;;;;;;;5054438;28;20155;-85
2022/05/08 08:32:12;;;;;;;11.65;2.13;;;;;;;;;;5053701;28;20057;-84
2022/05/08 08:34:40;;;;;;;10.10;2.97;;;;;;;;;;5056398;28;20482;-84
2022/05/08 08:37:08;;;;;;;10.98;2.15;;;;;;;;;;5057526;28;20144;-83
2022/05/08 08:39:36;;;;;;;11.95;2.50;;;;;;;;;;5056662;28;20040;-84
2022/05/08 08:42:27;;;;;;;11.98;2.00;;;;;;;;;;5053341;28;20045;-85
2022/05/08 08:47:53;;;;;;;7.88;2.25;;;;;;;;;;5057176;28;21882;-84
2022/05/08 08:50:24;;;;;;;10.25;2.00;;;;;;;;;;5058138;28;20749;-85
2022/05/08 08:53:00;;;;;;;13.95;2.10;;;;;;;;;;5056543;28;20049;-84
2022/05/08 08:55:28;;;;;;;11.07;1.75;;;;;;;;;;5057662;28;20068;-84
2022/05/08 08:57:56;;;;;;;9.57;1.98;;;;;;;;;;5057653;28;20056;-85
2022/05/08 09:00:24;;;;;;;10.48;2.50;;;;;;;;;;5054727;28;20052;-85
2022/05/08 09:02:53;;;;;;;8.35;2.20;;;;;;;;;;5057090;28;20090;-86
2022/05/08 09:05:22;;;;;;;13.18;2.55;;;;;;;;;;5055087;28;20076;-86
2022/05/08 09:07:56;;;;;;;9.75;1.95;;;;;;;;;;5057844;28;20056;-86
2022/05/08 09:10:35;;;;;;;10.00;2.45;;;;;;;;;;5056694;28;20052;-86
2022/05/08 09:13:06;;;;;;;11.43;2.40;;;;;;;;;;5056178;28;20064;-86
2022/05/08 09:15:39;;;;;;;12.30;1.90;;;;;;;;;;5056107;28;20080;-86
2022/05/08 09:18:10;;;;;;;9.88;2.15;;;;;;;;;;5057414;28;20052;-86
2022/05/08 09:20:47;;;;;;;10.20;2.80;;;;;;;;;;5056811;28;20059;-86
2022/05/08 09:23:19;;;;;;;12.10;2.55;;;;;;;;;;5057627;28;20040;-87
2022/05/08 09:25:57;;;;;;;11.55;2.20;;;;;;;;;;5054971;28;20052;-87
2022/05/08 09:28:45;;;;;;;9.13;2.47;;;;;;;;;;5055220;28;20059;-88
2022/05/08 09:31:16;;;;;;;8.98;2.00;;;;;;;;;;5055782;28;20103;-85
2022/05/08 09:33:46;;;;;;;7.57;1.98;;;;;;;;;;5058495;28;20140;-85
2022/05/08 09:36:22;;;;;;;9.77;1.80;;;;;;;;;;5057764;28;20056;-87
2022/05/08 09:38:51;;;;;;;10.32;1.95;;;;;;;;;;5058078;28;20076;-87
2022/05/08 09:41:26;;;;;;;7.55;2.20;;;;;;;;;;5037459;28;20072;-87
2022/05/08 09:44:13;;;;;;;10.50;2.67;;;;;;;;;;5058846;28;20052;-86
2022/05/08 09:46:47;;;;;;;10.35;2.67;;;;;;;;;;5057713;28;20059;-85
2022/05/08 09:49:23;;;;;;;10.10;1.98;;;;;;;;;;5058921;28;20060;-86
2022/05/08 09:51:53;;;;;;;5.05;1.83;;;;;;;;;;5057056;28;20049;-86
2022/05/08 09:54:20;;;;;;;8.38;2.22;;;;;;;;;;5055357;28;20494;-87
2022/05/08 09:56:49;;;;;;;7.10;1.80;;;;;;;;;;5056974;28;20072;-86
2022/05/08 09:59:16;;;;;;;8.82;1.85;;;;;;;;;;5057059;28;20060;-86
2022/05/08 10:01:44;;;;;;;7.95;2.17;;;;;;;;;;5056795;28;20048;-86
2022/05/08 10:04:12;;;;;;;14.52;2.28;;;;;;;;;;5057847;28;20066;-86
2022/05/08 10:06:41;;;;;;;7.78;1.75;;;;;;;;;;5056522;28;20063;-88
2022/05/08 10:14:53;;;;;;;10.82;2.20;;;;;;;;;;5058615;28;20052;-87
2022/05/08 10:17:29;;;;;;;10.10;1.90;;;;;;;;;;5056706;28;20136;-87
2022/05/08 10:19:58;;;;;;;8.23;2.00;;;;;;;;;;5061569;28;20049;-87
2022/05/08 10:22:47;;;;;;;10.57;2.25;;;;;;;;;;5060589;28;20153;-86
2022/05/08 10:25:19;;;;;;;7.38;2.05;;;;;;;;;;5061189;28;20137;-87
2022/05/08 10:28:06;;;;;;;9.40;2.25;;;;;;;;;;5061111;28;20522;-87
2022/05/08 10:30:35;;;;;;;11.13;1.73;;;;;;;;;;5060227;28;20443;-86
2022/05/08 10:33:04;;;;;;;11.13;2.72;;;;;;;;;;5060150;28;20055;-86
2022/05/08 10:35:32;;;;;;;8.80;2.13;;;;;;;;;;5062089;28;20371;-86
2022/05/08 10:38:00;;;;;;;10.70;2.45;;;;;;;;;;5059870;28;20053;-87
2022/05/08 10:40:28;;;;;;;11.70;2.55;;;;;;;;;;5062281;28;20056;-87
2022/05/08 10:43:01;;;;;;;10.50;2.25;;;;;;;;;;5043285;28;20519;-86
2022/05/08 10:45:36;;;;;;;7.15;2.10;;;;;;;;;;5060655;28;20052;-86
2022/05/08 10:48:08;;;;;;;11.52;2.50;;;;;;;;;;5048118;28;20059;-86
2022/05/08 10:50:54;;;;;;;10.98;2.30;;;;;;;;;;5061146;28;20071;-86
2022/05/08 10:53:25;;;;;;;8.27;2.05;;;;;;;;;;5060393;28;20040;-85
2022/05/08 10:55:58;;;;;;;10.05;1.88;;;;;;;;;;5061365;28;20091;-85
2022/05/08 10:58:26;;;;;;;10.82;2.22;;;;;;;;;;5061255;28;20452;-85
2022/05/08 11:00:59;;;;;;;5.53;1.80;;;;;;;;;;5060294;28;20056;-86
2022/05/08 11:03:28;;;;;;;10.23;2.47;;;;;;;;;;5059550;28;20125;-86
2022/05/08 11:05:57;;;;;;;6.22;1.88;;;;;;;;;;5061831;28;20054;-86
2022/05/08 11:08:33;;;;;;;9.70;1.95;;;;;;;;;;5060818;28;20505;-85
2022/05/08 11:11:03;;;;;;;5.78;2.17;;;;;;;;;;5061328;28;20041;-85
2022/05/08 11:13:49;;;;;;;8.13;1.95;;;;;;;;;;5063102;28;20045;-85
2022/05/08 11:16:37;;;;;;;8.32;2.33;;;;;;;;;;5062260;28;20048;-85
2022/05/08 11:19:06;;;;;;;9.75;2.40;;;;;;;;;;5060835;28;20084;-86
2022/05/08 11:21:34;;;;;;;11.10;2.78;;;;;;;;;;5062267;28;20060;-85
2022/05/08 11:24:03;;;;;;;9.35;2.15;;;;;;;;;;5059782;28;20566;-85
2022/05/08 11:26:32;;;;;;;9.77;3.42;;;;;;;;;;5059483;28;20057;-85
2022/05/08 11:29:00;;;;;;;12.38;2.70;;;;;;;;;;5061978;28;20143;-85
2022/05/08 11:31:28;;;;;;;12.00;3.58;;;;;;;;;;5060564;28;20055;-85
2022/05/08 11:36:44;;;;;;;9.35;3.38;;;;;;;;;;5061641;28;20644;-86
2022/05/08 11:39:16;;;;;;;10.25;2.63;;;;;;;;;;5060818;28;20055;-86
2022/05/08 11:41:46;;;;;;;10.48;2.22;;;;;;;;;;5061349;28;20167;-86
2022/05/08 11:44:14;;;;;;;8.80;2.17;;;;;;;;;;5059495;28;20642;-88
2022/05/08 11:46:50;;;;;;;9.25;2.28;;;;;;;;;;5062434;28;20060;-87
2022/05/08 11:49:20;;;;;;;11.85;2.72;;;;;;;;;;5058350;28;20064;-86
2022/05/08 11:51:53;;;;;;;13.32;2.47;;;;;;;;;;5061913;28;20045;-87
2022/05/08 11:54:40;;;;;;;9.95;3.30;;;;;;;;;;5060865;28;20154;-85
2022/05/08 11:57:09;;;;;;;7.88;2.30;;;;;;;;;;5059550;28;20053;-86
2022/05/08 11:59:36;;;;;;;9.32;2.83;;;;;;;;;;5053746;28;20056;-87
2022/05/08 12:02:04;;;;;;;6.75;2.38;;;;;;;;;;5056252;28;20624;-86
2022/05/08 12:04:36;;;;;;;9.13;2.03;;;;;;;;;;5038932;28;20227;-86
2022/05/08 12:07:07;;;;;;;8.23;2.22;;;;;;;;;;5054511;28;20209;-86
2022/05/08 12:09:51;;;;;;;11.55;2.17;;;;;;;;;;5056261;28;20110;-85
2022/05/08 12:12:28;;;;;;;7.40;2.05;;;;;;;;;;5056562;28;20143;-85
2022/05/08 12:15:02;;;;;;;10.38;2.38;;;;;;;;;;5056145;28;20052;-86
2022/05/08 12:17:35;;;;;;;8.45;2.00;;;;;;;;;;5056581;28;20126;-86
2022/05/08 12:20:09;;;;;;;8.20;2.45;;;;;;;;;;5056233;28;20045;-86
2022/05/08 12:22:36;;;;;;;10.88;2.30;;;;;;;;;;5057344;28;21062;-84
2022/05/08 12:25:07;;;;;;;9.68;2.55;;;;;;;;;;5057074;28;20056;-83
2022/05/08 12:27:36;;;;;;;12.48;2.22;;;;;;;;;;5055751;28;20040;-83
2022/05/08 12:30:07;;;;;;;9.10;2.17;;;;;;;;;;5055049;28;20055;-83
2022/05/08 12:32:39;;;;;;;8.20;2.40;;;;;;;;;;5056204;28;20052;-83
2022/05/08 12:35:08;;;;;;;7.15;2.08;;;;;;;;;;5056810;28;20045;-83
2022/05/08 12:37:39;;;;;;;7.90;2.28;;;;;;;;;;5055647;28;20938;-83
2022/05/08 12:40:15;;;;;;;7.55;2.08;;;;;;;;;;5052505;28;21029;-83
2022/05/08 12:42:44;;;;;;;7.47;2.17;;;;;;;;;;5053602;28;20048;-83
2022/05/08 12:45:12;;;;;;;6.47;2.22;;;;;;;;;;5055653;28;20412;-85
2022/05/08 12:47:40;;;;;;;8.32;2.22;;;;;;;;;;5055154;28;20049;-84
2022/05/08 12:50:09;;;;;;;9.02;1.92;;;;;;;;;;5037019;28;20059;-83
2022/05/08 12:52:36;;;;;;;9.02;2.40;;;;;;;;;;5054851;28;21277;-82
2022/05/08 12:55:04;;;;;;;10.38;2.40;;;;;;;;;;5054090;28;20048;-82
2022/05/08 13:00:20;;;;;;;9.80;2.30;;;;;;;;;;5054865;28;20106;-81
2022/05/08 13:02:48;;;;;;;10.15;2.10;;;;;;;;;;5054670;28;20057;-80
2022/05/08 13:05:16;;;;;;;9.32;2.30;;;;;;;;;;5037794;28;20070;-80
2022/05/08 13:07:44;;;;;;;8.52;2.35;;;;;;;;;;5055919;28;20155;-81
2022/05/08 13:10:12;;;;;;;8.05;1.77;;;;;;;;;;5055291;28;20068;-81
2022/05/08 13:12:40;;;;;;;9.65;2.63;;;;;;;;;;5056687;28;20055;-81
2022/05/08 13:15:08;;;;;;;7.47;2.30;;;;;;;;;;5042611;28;20135;-81
2022/05/08 13:17:36;;;;;;;6.40;1.95;;;;;;;;;;5056683;28;20088;-81
2022/05/08 13:20:04;;;;;;;7.65;1.80;;;;;;;;;;5053317;28;20106;-81
2022/05/08 13:22:32;;;;;;;10.50;2.47;;;;;;;;;;5055223;28;20043;-81
2022/05/08 13:25:00;;;;;;;6.30;2.45;;;;;;;;;;5055032;28;20127;-82
2022/05/08 13:27:28;;;;;;;7.88;2.45;;;;;;;;;;5055262;28;20106;-84
2022/05/08 13:29:56;;;;;;;8.40;2.67;;;;;;;;;;5054485;28;20461;-84
2022/05/08 13:32:24;;;;;;;7.72;1.75;;;;;;;;;;5053949;28;20057;-83
2022/05/08 13:34:52;;;;;;;9.02;2.25;;;;;;;;;;5055053;28;20037;-83
2022/05/08 13:37:20;;;;;;;7.13;2.20;;;;;;;;;;5052969;28;20649;-84
2022/05/08 13:39:48;;;;;;;4.82;1.60;;;;;;;;;;5056675;28;20057;-83
2022/05/08 13:42:18;;;;;;;10.07;2.35;;;;;;;;;;5055115;28;20182;-84
2022/05/08 13:44:46;;;;;;;8.98;1.90;;;;;;;;;;5054695;28;20150;-83
2022/05/08 13:47:15;;;;;;;9.02;2.00;;;;;;;;;;5055582;28;20151;-83
2022/05/08 13:49:42;;;;;;;4.07;1.67;;;;;;;;;;5055953;28;20454;-83
2022/05/08 13:52:10;;;;;;;11.73;2.17;;;;;;;;;;5055497;28;20059;-83
2022/05/08 13:54:38;;;;;;;10.20;2.63;;;;;;;;;;5059627;28;20052;-83
2022/05/08 13:57:07;;;;;;;7.38;1.60;;;;;;;;;;5058882;28;20163;-84
2022/05/08 13:59:34;;;;;;;8.80;1.90;;;;;;;;;;5057230;28;20382;-84
2022/05/08 14:02:03;;;;;;;8.95;1.90;;;;;;;;;;5057695;28;20051;-84
2022/05/08 14:04:30;;;;;;;7.00;2.50;;;;;;;;;;5058411;28;20049;-84
2022/05/08 14:06:58;;;;;;;6.30;1.73;;;;;;;;;;5057762;28;20506;-85
2022/05/08 14:09:26;;;;;;;9.38;2.72;;;;;;;;;;5058088;28;20047;-84
2022/05/08 14:11:54;;;;;;;7.10;1.98;;;;;;;;;;5039861;28;20144;-86
2022/05/08 14:14:27;;;;;;;7.47;2.22;;;;;;;;;;5059008;28;20045;-86
2022/05/08 14:17:01;;;;;;;5.85;1.90;;;;;;;;;;5060464;28;20052;-86
2022/05/08 14:19:30;;;;;;;9.20;1.92;;;;;;;;;;5059995;28;20110;-86
2022/05/08 14:22:00;;;;;;;11.50;2.13;;;;;;;;;;5061059;28;20098;-86
2022/05/08 14:24:28;;;;;;;4.97;1.88;;;;;;;;;;5058275;28;20044;-86
2022/05/08 14:26:56;;;;;;;12.90;2.10;;;;;;;;;;5060900;28;20615;-86
2022/05/08 14:29:24;;;;;;;10.27;2.10;;;;;;;;;;5061171;28;20056;-86
2022/05/08 14:37:24;;;;;;;23.50;2.75;;;;;;;;;;5059683;28;20048;-86
2022/05/08 14:39:52;;;;;;;10.75;2.92;;;;;;;;;;5059482;28;20509;-86
2022/05/08 14:42:20;;;;;;;27.45;2.67;;;;;;;;;;5058219;28;20048;-85
2022/05/08 14:44:48;;;;;;;8.45;1.70;;;;;;;;;;5058160;28;20135;-85
2022/05/08 14:47:18;;;;;;;11.90;1.77;;;;;;;;;;5055603;28;20059;-85
2022/05/08 14:49:46;;;;;;;7.50;2.15;;;;;;;;;;5059382;28;20059;-86
2022/05/08 14:52:16;;;;;;;6.90;1.75;;;;;;;;;;5056924;28;20155;-81
2022/05/08 14:54:44;;;;;;;10.98;2.50;;;;;;;;;;5059819;28;20139;-82
2022/05/08 14:57:12;;;;;;;8.63;2.35;;;;;;;;;;5056203;28;20066;-82
2022/05/08 14:59:40;;;;;;;10.20;2.53;;;;;;;;;;5058182;28;20041;-82
2022/05/08 15:02:08;;;;;;;6.85;2.50;;;;;;;;;;5060178;28;20053;-82
2022/05/08 15:04:36;;;;;;;8.00;2.40;;;;;;;;;;5057319;28;20955;-82
2022/05/08 15:07:04;;;;;;;7.00;2.45;;;;;;;;;;5054952;28;20151;-82
2022/05/08 15:09:36;;;;;;;5.50;1.60;;;;;;;;;;5058692;28;20044;-80
2022/05/08 15:12:05;;;;;;;5.35;1.70;;;;;;;;;;5056069;28;20053;-84
2022/05/08 15:14:32;;;;;;;7.18;2.00;;;;;;;;;;5059263;28;20059;-84
2022/05/08 15:17:00;;;;;;;14.82;3.83;;;;;;;;;;5059334;28;20049;-83
2022/05/08 15:19:28;;;;;;;6.18;2.38;;;;;;;;;;5059307;28;20048;-84
2022/05/08 15:21:56;;;;;;;5.95;1.60;;;;;;;;;;5060288;28;20985;-83
2022/05/08 15:24:24;;;;;;;8.48;1.95;;;;;;;;;;5059618;28;20055;-84
2022/05/08 15:26:52;;;;;;;4.63;1.48;;;;;;;;;;5061487;28;20056;-84
2022/05/08 15:29:22;;;;;;;7.60;1.98;;;;;;;;;;5059996;28;20060;-84